Time;durP1;ratioP1;P1;durP2;ratioP2;P2;SDS_P1;SDS_P2;PMS_P1;PMS_P2;Temp;Humidity;BMP_temperature;BMP_pressure;BME280_temperature;BME280_humidity;BME280_pressure;Samples;Min_cycle;Max_cycle;Signal;HPM_P1;HPM_P2
2022/07/09 03:53:15;;;;;;;;;;;17.90;92.30;;;;;;6222841;22;20002;-87
2022/07/09 03:55:44;;;;;;;;;;;18.00;92.60;;;;;;6214881;23;19951;-88
2022/07/09 03:58:13;;;;;;;;;;;17.80;92.30;;;;;;6190343;23;19907;-86
2022/07/09 04:00:42;;;;;;;;;;;17.80;92.40;;;;;;6215192;23;19918;-87
2022/07/09 04:03:11;;;;;;;;;;;17.80;92.40;;;;;;6217636;23;19908;-88
2022/07/09 04:05:38;;;;;;;;;;;17.80;92.80;;;;;;6190092;23;19952;-87
2022/07/09 04:08:22;;;;;;;;;;;17.80;92.90;;;;;;6221160;23;19964;-86
2022/07/09 04:10:49;;;;;;;;;;;17.80;92.70;;;;;;6215185;23;19951;-87
2022/07/09 04:13:19;;;;;;;;;;;17.70;93.10;;;;;;6189952;23;19963;-89
2022/07/09 04:15:47;;;;;;;;;;;16.80;92.90;;;;;;6214515;23;20498;-87
2022/07/09 04:18:15;;;;;;;;;;;16.80;92.60;;;;;;6239779;23;19956;-87
2022/07/09 04:20:43;;;;;;;;;;;17.70;93.40;;;;;;6214827;23;19951;-87
2022/07/09 04:23:12;;;;;;;;;;;17.70;93.40;;;;;;6190671;23;19956;-85
2022/07/09 04:25:40;;;;;;;;;;;17.70;93.20;;;;;;6241087;23;19979;-86
2022/07/09 04:28:09;;;;;;;;;;;17.60;93.20;;;;;;6191201;23;20061;-89
2022/07/09 04:30:38;;;;;;;;;;;17.70;93.10;;;;;;6196564;22;19963;-88
2022/07/09 04:33:07;;;;;;;;;;;17.50;93.00;;;;;;6220598;22;19947;-86
2022/07/09 04:35:37;;;;;;;;;;;17.70;93.20;;;;;;6221636;22;19964;-85
2022/07/09 04:38:05;;;;;;;;;;;17.60;93.30;;;;;;6221790;22;19934;-87
2022/07/09 04:40:33;;;;;;;;;;;17.70;93.40;;;;;;6248199;22;19979;-85
2022/07/09 04:43:02;;;;;;;;;;;17.70;94.10;;;;;;6220146;22;20149;-86
2022/07/09 04:45:29;;;;;;;;;;;17.60;93.60;;;;;;6223340;22;19908;-86
2022/07/09 04:48:00;;;;;;;;;;;17.70;93.40;;;;;;6244230;22;19907;-87
2022/07/09 04:50:28;;;;;;;;;;;17.70;93.50;;;;;;6272573;22;19959;-87
2022/07/09 04:52:57;;;;;;;;;;;17.70;93.50;;;;;;6237052;23;19948;-86
2022/07/09 04:55:27;;;;;;;;;;;17.80;93.60;;;;;;6243948;23;19951;-86
2022/07/09 04:57:54;;;;;;;;;;;17.80;93.30;;;;;;6214537;23;19922;-87
2022/07/09 05:00:23;;;;;;;;;;;17.90;93.40;;;;;;6189003;23;19914;-86
2022/07/09 05:02:54;;;;;;;;;;;17.90;93.50;;;;;;6213228;22;20196;-85
2022/07/09 05:05:23;;;;;;;;;;;17.90;93.30;;;;;;6209930;23;20119;-87
2022/07/09 05:07:51;;;;;;;;;;;18.00;93.90;;;;;;6237491;22;19914;-86
2022/07/09 05:10:20;;;;;;;;;;;18.00;93.60;;;;;;6185796;23;19971;-88
2022/07/09 05:12:50;;;;;;;;;;;18.00;94.10;;;;;;6240549;22;19951;-87
2022/07/09 05:15:17;;;;;;;;;;;18.00;93.60;;;;;;6211462;23;19924;-86
2022/07/09 05:17:45;;;;;;;;;;;18.10;94.10;;;;;;6240638;22;19908;-89
2022/07/09 05:20:14;;;;;;;;;;;18.10;93.60;;;;;;6162494;22;19908;-87
2022/07/09 05:22:43;;;;;;;;;;;18.10;93.80;;;;;;6241804;22;19920;-87
2022/07/09 05:25:13;;;;;;;;;;;18.10;94.50;;;;;;6211420;23;19930;-86
2022/07/09 05:27:42;;;;;;;;;;;18.10;93.90;;;;;;6213519;23;19939;-85
2022/07/09 05:30:17;;;;;;;;;;;18.10;94.30;;;;;;6241604;22;19976;-86
2022/07/09 05:36:58;;;;;;;;;;;18.20;94.40;;;;;;6243713;22;19940;-86
2022/07/09 05:39:29;;;;;;;;;;;18.30;94.60;;;;;;6165309;23;19930;-87
2022/07/09 05:42:04;;;;;;;;;;;18.30;94.20;;;;;;6215021;23;19908;-86
2022/07/09 05:44:32;;;;;;;;;;;18.40;94.70;;;;;;6187976;23;19952;-86
2022/07/09 05:47:04;;;;;;;;;;;18.40;94.60;;;;;;6189064;22;19927;-85
2022/07/09 05:49:33;;;;;;;;;;;18.50;94.40;;;;;;6165532;22;19972;-87
2022/07/09 05:52:04;;;;;;;;;;;18.60;94.30;;;;;;6219028;23;19910;-86
2022/07/09 05:54:32;;;;;;;;;;;18.70;94.40;;;;;;6241376;22;19968;-85
2022/07/09 05:57:26;;;;;;;;;;;18.70;94.40;;;;;;6250456;22;19955;-85
2022/07/09 05:59:56;;;;;;;;;;;18.80;94.30;;;;;;6188215;22;19955;-86
2022/07/09 06:02:24;;;;;;;;;;;18.90;94.30;;;;;;6214145;22;19930;-87
2022/07/09 06:04:54;;;;;;;;;;;19.00;94.30;;;;;;6215157;22;19914;-86
2022/07/09 06:07:22;;;;;;;;;;;19.10;94.10;;;;;;6216292;22;19908;-86
2022/07/09 06:10:21;;;;;;;;;;;19.10;94.00;;;;;;6241285;22;19971;-86
2022/07/09 06:12:49;;;;;;;;;;;19.20;93.80;;;;;;6216452;23;19964;-85
2022/07/09 06:19:00;;;;;;;;;;;19.40;94.00;;;;;;6239222;22;20027;-86
2022/07/09 06:21:30;;;;;;;;;;;19.40;93.70;;;;;;6218387;23;19908;-85
2022/07/09 06:24:04;;;;;;;;;;;19.40;93.70;;;;;;6216751;23;19916;-86
2022/07/09 06:26:36;;;;;;;;;;;19.40;93.80;;;;;;6197130;22;19930;-85
2022/07/09 06:29:04;;;;;;;;;;;19.40;93.70;;;;;;6215266;23;19908;-85
2022/07/09 06:31:41;;;;;;;;;;;19.50;93.90;;;;;;6191750;23;19942;-85
2022/07/09 06:34:13;;;;;;;;;;;19.50;94.00;;;;;;6242658;22;19960;-86
2022/07/09 06:37:14;;;;;;;;;;;21.00;94.20;;;;;;6246007;22;19951;-84
2022/07/09 06:39:45;;;;;;;;;;;19.60;93.80;;;;;;6219227;23;19904;-85
2022/07/09 06:42:38;;;;;;;;;;;19.60;93.70;;;;;;6190581;22;19951;-87
2022/07/09 06:45:19;;;;;;;;;;;19.60;93.60;;;;;;6215739;23;19934;-86
2022/07/09 06:47:52;;;;;;;;;;;19.60;93.60;;;;;;6234257;22;19918;-86
2022/07/09 06:50:21;;;;;;;;;;;19.70;93.60;;;;;;6233009;23;19930;-86
2022/07/09 06:52:49;;;;;;;;;;;19.70;93.80;;;;;;6203401;23;19930;-85
2022/07/09 06:55:17;;;;;;;;;;;19.90;93.50;;;;;;6230841;23;19920;-86
2022/07/09 06:57:48;;;;;;;;;;;19.80;93.20;;;;;;6180078;23;19920;-85
2022/07/09 07:00:17;;;;;;;;;;;19.10;92.70;;;;;;6233275;23;19914;-86
2022/07/09 07:02:44;;;;;;;;;;;20.10;92.90;;;;;;6207219;23;19942;-86
2022/07/09 07:05:13;;;;;;;;;;;20.10;92.80;;;;;;6208730;23;20185;-86
2022/07/09 07:07:57;;;;;;;;;;;20.00;92.70;;;;;;6183336;23;20227;-86
2022/07/09 07:10:28;;;;;;;;;;;20.10;92.90;;;;;;6180142;23;19920;-85
2022/07/09 07:13:23;;;;;;;;;;;20.00;92.60;;;;;;6185501;23;20263;-87
2022/07/09 07:16:27;;;;;;;;;;;20.10;92.60;;;;;;6211041;22;19924;-86
2022/07/09 07:18:58;;;;;;;;;;;20.20;92.50;;;;;;6180202;23;19920;-86
2022/07/09 07:21:27;;;;;;;;;;;20.30;92.30;;;;;;6205853;23;19920;-85
2022/07/09 07:24:16;;;;;;;;;;;20.40;92.00;;;;;;6178165;23;19927;-85
2022/07/09 07:26:45;;;;;;;;;;;20.50;91.80;;;;;;6178159;23;19930;-86
2022/07/09 07:29:16;;;;;;;;;;;20.60;91.90;;;;;;6203702;23;19923;-86
2022/07/09 07:31:52;;;;;;;;;;;20.70;91.70;;;;;;6204072;23;19924;-85
2022/07/09 07:34:26;;;;;;;;;;;20.90;91.20;;;;;;6174202;23;19930;-87
2022/07/09 07:36:58;;;;;;;;;;;21.10;91.20;;;;;;6204713;23;19942;-87
2022/07/09 07:39:27;;;;;;;;;;;21.30;91.00;;;;;;6236912;23;20041;-87
2022/07/09 07:41:58;;;;;;;;;;;21.40;90.60;;;;;;6179677;23;19934;-88
2022/07/09 07:44:33;;;;;;;;;;;21.40;90.60;;;;;;6153308;23;19924;-86
2022/07/09 07:47:11;;;;;;;;;;;21.40;90.30;;;;;;6205248;23;19924;-86
2022/07/09 07:49:39;;;;;;;;;;;21.40;90.50;;;;;;6156916;23;19930;-86
2022/07/09 07:52:12;;;;;;;;;;;21.30;90.00;;;;;;6181965;23;19926;-86
2022/07/09 07:54:44;;;;;;;;;;;21.10;90.20;;;;;;6194859;23;19923;-87
2022/07/09 07:57:30;;;;;;;;;;;21.20;90.30;;;;;;6182602;23;19909;-84
2022/07/09 08:00:02;;;;;;;;;;;21.30;90.10;;;;;;6184290;23;19912;-88
2022/07/09 08:03:04;;;;;;;;;;;21.30;90.10;;;;;;6173860;23;19924;-86
2022/07/09 08:06:07;;;;;;;;;;;21.20;89.90;;;;;;6203084;23;19950;-85
2022/07/09 08:08:44;;;;;;;;;;;21.20;90.10;;;;;;6175973;23;19924;-86
2022/07/09 08:11:30;;;;;;;;;;;21.30;90.10;;;;;;6168235;23;19939;-86
2022/07/09 08:14:10;;;;;;;;;;;21.30;90.00;;;;;;6145716;23;19934;-86
2022/07/09 08:16:39;;;;;;;;;;;20.30;90.10;;;;;;6167878;23;19924;-87
2022/07/09 08:19:26;;;;;;;;;;;21.40;89.00;;;;;;6153858;23;20190;-85
2022/07/09 08:22:04;;;;;;;;;;;21.40;88.30;;;;;;6201177;23;19920;-87
2022/07/09 08:25:01;;;;;;;;;;;21.30;88.70;;;;;;6186046;23;19934;-85
2022/07/09 08:27:33;;;;;;;;;;;21.70;89.00;;;;;;6155227;23;19920;-87
2022/07/09 08:30:06;;;;;;;;;;;21.30;88.80;;;;;;6173428;23;20182;-87
2022/07/09 08:32:37;;;;;;;;;;;21.40;88.70;;;;;;6163736;23;19938;-86
2022/07/09 08:35:11;;;;;;;;;;;21.30;87.90;;;;;;6165449;23;19932;-85
2022/07/09 08:37:41;;;;;;;;;;;21.40;87.70;;;;;;6139594;23;19924;-86
2022/07/09 08:40:11;;;;;;;;;;;21.50;87.70;;;;;;6161132;23;19935;-85
2022/07/09 08:42:43;;;;;;;;;;;21.40;87.10;;;;;;6111130;23;19924;-87
2022/07/09 08:45:14;;;;;;;;;;;22.00;87.20;;;;;;6136206;23;19924;-87
2022/07/09 08:47:45;;;;;;;;;;;21.40;86.50;;;;;;6144431;23;19920;-86
2022/07/09 08:50:19;;;;;;;;;;;19.60;86.20;;;;;;6157342;23;19925;-87
2022/07/09 08:52:51;;;;;;;;;;;21.30;87.50;;;;;;6109840;23;19920;-84
2022/07/09 08:55:22;;;;;;;;;;;21.30;87.80;;;;;;6179757;23;19924;-87
2022/07/09 08:57:51;;;;;;;;;;;20.70;87.60;;;;;;6201121;23;19923;-86
2022/07/09 09:00:28;;;;;;;;;;;21.30;88.00;;;;;;6222909;23;20281;-86
2022/07/09 09:03:02;;;;;;;;;;;21.30;88.00;;;;;;6223127;23;19930;-88
2022/07/09 09:05:35;;;;;;;;;;;21.30;88.20;;;;;;6222706;23;20303;-87
2022/07/09 09:08:18;;;;;;;;;;;21.30;88.40;;;;;;6200433;23;19920;-85
2022/07/09 09:10:46;;;;;;;;;;;21.80;88.60;;;;;;6196245;23;19920;-86
2022/07/09 09:13:20;;;;;;;;;;;21.30;88.30;;;;;;6221134;23;19931;-86
2022/07/09 09:16:18;;;;;;;;;;;21.40;88.50;;;;;;6223801;23;19924;-86
2022/07/09 09:18:56;;;;;;;;;;;21.50;88.10;;;;;;6224227;23;19924;-86
2022/07/09 09:21:32;;;;;;;;;;;21.70;87.60;;;;;;6148926;23;19924;-86
2022/07/09 09:24:05;;;;;;;;;;;22.20;87.90;;;;;;6187932;23;19924;-86
2022/07/09 09:26:35;;;;;;;;;;;21.80;87.10;;;;;;6198805;23;20217;-86
2022/07/09 09:29:43;;;;;;;;;;;21.80;87.20;;;;;;6201426;23;19926;-86
2022/07/09 09:32:24;;;;;;;;;;;22.20;87.20;;;;;;6199223;23;19926;-86
2022/07/09 09:34:55;;;;;;;;;;;22.00;87.20;;;;;;6195307;23;19927;-88
2022/07/09 09:37:27;;;;;;;;;;;22.10;87.10;;;;;;6224865;23;19927;-87
2022/07/09 09:40:11;;;;;;;;;;;22.10;86.30;;;;;;6201843;23;19923;-86
2022/07/09 09:42:40;;;;;;;;;;;22.10;86.20;;;;;;6225151;23;19924;-86
2022/07/09 09:45:08;;;;;;;;;;;22.20;85.90;;;;;;6224361;23;19924;-87
2022/07/09 09:47:38;;;;;;;;;;;22.20;86.50;;;;;;6203887;23;19923;-86
2022/07/09 09:50:08;;;;;;;;;;;22.30;86.70;;;;;;6232551;23;19934;-86
2022/07/09 09:52:36;;;;;;;;;;;22.40;86.50;;;;;;6205898;23;20400;-86
2022/07/09 09:55:32;;;;;;;;;;;22.50;85.90;;;;;;6155670;23;19924;-86
2022/07/09 09:58:06;;;;;;;;;;;22.60;85.80;;;;;;6170495;23;20251;-87
2022/07/09 10:00:34;;;;;;;;;;;22.60;85.50;;;;;;6145683;23;19920;-86
2022/07/09 10:03:06;;;;;;;;;;;22.70;86.00;;;;;;6171405;23;19924;-86
2022/07/09 10:05:36;;;;;;;;;;;22.80;85.50;;;;;;6146964;23;19924;-86
2022/07/09 10:08:07;;;;;;;;;;;22.90;85.20;;;;;;6149130;23;19924;-87
2022/07/09 10:10:50;;;;;;;;;;;23.10;84.90;;;;;;6174373;23;19920;-87
2022/07/09 10:13:28;;;;;;;;;;;22.60;83.80;;;;;;6177083;23;19927;-89
2022/07/09 10:16:04;;;;;;;;;;;23.30;84.10;;;;;;6155973;23;19930;-89
2022/07/09 10:19:03;;;;;;;;;;;23.90;83.50;;;;;;6180641;23;19930;-88
2022/07/09 10:21:36;;;;;;;;;;;23.40;82.30;;;;;;6179742;23;19927;-89
2022/07/09 10:24:10;;;;;;;;;;;23.30;81.40;;;;;;6181974;23;19927;-87
2022/07/09 10:27:19;;;;;;;;;;;23.90;80.50;;;;;;6179929;23;19916;-87
2022/07/09 10:30:12;;;;;;;;;;;24.50;80.70;;;;;;6157059;23;19926;-87
2022/07/09 10:32:42;;;;;;;;;;;23.20;79.90;;;;;;6149765;23;19924;-87
2022/07/09 10:35:18;;;;;;;;;;;23.20;81.20;;;;;;6154634;23;19934;-87
2022/07/09 10:38:02;;;;;;;;;;;23.30;80.40;;;;;;6155570;23;19920;-86
2022/07/09 10:40:46;;;;;;;;;;;22.90;80.00;;;;;;6153003;23;19930;-83
2022/07/09 10:43:21;;;;;;;;;;;24.00;80.40;;;;;;6164323;23;19921;-84
2022/07/09 10:45:58;;;;;;;;;;;23.70;80.30;;;;;;6196754;23;19950;-86
2022/07/09 10:48:35;;;;;;;;;;;23.80;79.60;;;;;;6174808;23;19924;-86
2022/07/09 10:51:04;;;;;;;;;;;24.10;79.30;;;;;;6200399;23;19921;-88
2022/07/09 10:53:33;;;;;;;;;;;24.30;79.50;;;;;;6200781;23;19943;-85
2022/07/09 10:56:07;;;;;;;;;;;24.50;77.80;;;;;;6149347;23;19920;-86
2022/07/09 10:58:45;;;;;;;;;;;24.60;78.00;;;;;;6198313;23;20497;-86
2022/07/09 11:01:30;;;;;;;;;;;24.20;77.10;;;;;;6178381;23;19924;-85
2022/07/09 11:04:13;;;;;;;;;;;24.60;77.40;;;;;;6181423;23;19919;-86
2022/07/09 11:06:56;;;;;;;;;;;23.20;76.40;;;;;;6155185;23;19924;-86
2022/07/09 11:10:01;;;;;;;;;;;24.80;77.30;;;;;;6179331;23;19930;-87
2022/07/09 11:13:16;;;;;;;;;;;24.90;76.50;;;;;;6183025;23;20050;-87
2022/07/09 11:15:50;;;;;;;;;;;25.10;76.60;;;;;;6132512;23;19924;-87
2022/07/09 11:18:50;;;;;;;;;;;25.40;74.80;;;;;;6205949;23;19968;-88
2022/07/09 11:21:27;;;;;;;;;;;25.40;74.30;;;;;;6153671;23;19908;-86
2022/07/09 11:24:01;;;;;;;;;;;25.40;74.10;;;;;;6184354;23;19927;-87
2022/07/09 11:26:35;;;;;;;;;;;25.50;75.50;;;;;;6211124;23;19908;-87
2022/07/09 11:29:09;;;;;;;;;;;25.70;74.60;;;;;;6131775;23;19920;-87
2022/07/09 11:31:48;;;;;;;;;;;25.60;73.30;;;;;;6157834;23;19904;-86
2022/07/09 11:34:20;;;;;;;;;;;25.50;74.70;;;;;;6205557;23;19924;-86
2022/07/09 11:36:55;;;;;;;;;;;25.50;74.80;;;;;;6210058;23;19920;-88
2022/07/09 11:39:28;;;;;;;;;;;25.50;72.50;;;;;;6160721;23;19930;-86
2022/07/09 11:42:27;;;;;;;;;;;25.50;71.90;;;;;;6160074;23;20001;-87
2022/07/09 11:45:00;;;;;;;;;;;25.60;72.00;;;;;;6185554;23;19916;-88
2022/07/09 11:47:35;;;;;;;;;;;25.80;72.90;;;;;;6192463;23;19926;-85
2022/07/09 11:50:07;;;;;;;;;;;25.90;72.20;;;;;;6209605;23;19909;-87
2022/07/09 11:52:45;;;;;;;;;;;25.10;71.10;;;;;;6183022;23;19924;-85
2022/07/09 11:55:17;;;;;;;;;;;25.90;71.50;;;;;;6229105;23;19924;-85
2022/07/09 11:57:56;;;;;;;;;;;24.40;70.70;;;;;;6235541;23;19920;-86
2022/07/09 12:00:32;;;;;;;;;;;25.80;70.60;;;;;;6209458;23;19924;-86
2022/07/09 12:03:04;;;;;;;;;;;25.70;70.80;;;;;;6235254;23;19920;-87
2022/07/09 12:05:39;;;;;;;;;;;27.00;72.20;;;;;;6234088;23;19923;-89
2022/07/09 12:08:12;;;;;;;;;;;25.80;71.20;;;;;;6203850;23;19920;-85
2022/07/09 12:13:47;;;;;;;;;;;25.90;70.90;;;;;;6232100;23;19920;-85
2022/07/09 12:16:17;;;;;;;;;;;26.10;69.70;;;;;;6224971;23;19924;-86
2022/07/09 12:18:49;;;;;;;;;;;26.20;69.60;;;;;;6203031;23;19930;-88
2022/07/09 12:21:26;;;;;;;;;;;26.30;69.40;;;;;;6230052;23;19923;-87
2022/07/09 12:24:06;;;;;;;;;;;26.40;68.90;;;;;;6165391;23;19920;-90
2022/07/09 12:26:35;;;;;;;;;;;25.70;68.40;;;;;;6223715;23;20237;-86
2022/07/09 12:29:33;;;;;;;;;;;26.50;69.30;;;;;;6201498;23;19919;-89
2022/07/09 12:32:21;;;;;;;;;;;26.70;68.50;;;;;;6226436;23;19930;-86
2022/07/09 12:35:00;;;;;;;;;;;26.30;67.50;;;;;;6174776;23;19924;-86
2022/07/09 12:37:31;;;;;;;;;;;26.80;67.70;;;;;;6197407;23;19928;-87
2022/07/09 12:40:01;;;;;;;;;;;26.50;69.10;;;;;;6223512;23;19920;-86
2022/07/09 12:42:30;;;;;;;;;;;26.70;68.60;;;;;;6198240;23;20217;-87
2022/07/09 12:45:03;;;;;;;;;;;26.70;68.00;;;;;;6218972;23;19927;-87
2022/07/09 12:47:38;;;;;;;;;;;26.70;68.10;;;;;;6221801;23;19924;-87
2022/07/09 12:50:09;;;;;;;;;;;26.70;67.00;;;;;;6194981;23;19943;-87
2022/07/09 12:52:37;;;;;;;;;;;26.70;66.80;;;;;;6217940;23;19930;-87
2022/07/09 12:55:09;;;;;;;;;;;26.80;66.90;;;;;;6193575;23;20489;-87
2022/07/09 12:57:38;;;;;;;;;;;26.80;66.80;;;;;;6195748;23;19920;-88
2022/07/09 13:00:10;;;;;;;;;;;26.90;67.40;;;;;;6192883;23;19923;-88
2022/07/09 13:02:43;;;;;;;;;;;27.50;66.80;;;;;;6219675;23;19928;-88
2022/07/09 13:05:16;;;;;;;;;;;27.20;66.50;;;;;;6221853;23;19924;-85
2022/07/09 13:07:44;;;;;;;;;;;27.20;66.30;;;;;;6217340;23;19924;-88
2022/07/09 13:10:13;;;;;;;;;;;27.30;66.40;;;;;;6221700;23;19928;-86
2022/07/09 13:12:43;;;;;;;;;;;27.40;65.90;;;;;;6212307;23;19924;-85
2022/07/09 13:15:11;;;;;;;;;;;27.30;65.10;;;;;;6215749;23;19924;-85
2022/07/09 13:17:42;;;;;;;;;;;26.30;64.20;;;;;;6219921;23;19920;-86
2022/07/09 13:20:13;;;;;;;;;;;27.40;64.30;;;;;;6194195;23;19924;-86
2022/07/09 13:22:44;;;;;;;;;;;26.00;63.80;;;;;;6222712;23;19924;-86
2022/07/09 13:25:14;;;;;;;;;;;27.10;63.90;;;;;;6201450;23;19915;-87
2022/07/09 13:27:47;;;;;;;;;;;28.00;64.30;;;;;;6199663;23;19919;-85
2022/07/09 13:30:20;;;;;;;;;;;28.10;63.60;;;;;;6220167;23;20333;-86
2022/07/09 13:32:48;;;;;;;;;;;28.10;63.90;;;;;;6229723;23;19923;-86
2022/07/09 13:35:45;;;;;;;;;;;28.30;64.00;;;;;;6197060;23;19924;-85
2022/07/09 13:38:13;;;;;;;;;;;28.40;63.40;;;;;;6223010;23;19928;-85
2022/07/09 13:40:47;;;;;;;;;;;28.70;63.20;;;;;;6224996;23;19920;-85
2022/07/09 13:43:26;;;;;;;;;;;29.00;61.90;;;;;;6219767;23;19967;-86
2022/07/09 13:46:09;;;;;;;;;;;29.10;61.70;;;;;;6198225;23;19930;-85
2022/07/09 13:48:39;;;;;;;;;;;29.30;62.00;;;;;;6218711;23;19924;-86
2022/07/09 13:51:07;;;;;;;;;;;29.00;62.00;;;;;;6222737;23;19923;-84
2022/07/09 13:53:35;;;;;;;;;;;29.90;61.80;;;;;;6220115;23;19920;-85
2022/07/09 13:56:06;;;;;;;;;;;30.60;62.20;;;;;;6223375;23;19928;-84
2022/07/09 13:58:35;;;;;;;;;;;30.40;60.90;;;;;;6220926;23;19924;-86
2022/07/09 14:01:03;;;;;;;;;;;30.60;60.30;;;;;;6218901;23;19920;-87
2022/07/09 14:03:31;;;;;;;;;;;30.80;59.10;;;;;;6218635;23;19924;-85
2022/07/09 14:06:01;;;;;;;;;;;30.90;58.90;;;;;;6223379;23;19930;-87
2022/07/09 14:08:47;;;;;;;;;;;31.00;59.40;;;;;;6218039;23;19919;-86
2022/07/09 14:11:16;;;;;;;;;;;31.10;58.30;;;;;;6221248;23;20244;-86
2022/07/09 14:13:46;;;;;;;;;;;31.20;59.30;;;;;;6192450;23;20284;-87
2022/07/09 14:16:14;;;;;;;;;;;31.30;59.00;;;;;;6217050;23;19928;-85
2022/07/09 14:18:46;;;;;;;;;;;31.30;58.80;;;;;;6218052;23;19979;-86
2022/07/09 14:21:15;;;;;;;;;;;31.30;58.60;;;;;;6190655;23;19924;-86
2022/07/09 14:23:48;;;;;;;;;;;31.40;58.10;;;;;;6209820;23;19950;-85
2022/07/09 14:26:17;;;;;;;;;;;31.50;58.00;;;;;;6216682;23;19946;-85
2022/07/09 14:28:46;;;;;;;;;;;31.80;58.50;;;;;;6184339;23;19924;-85
2022/07/09 14:31:16;;;;;;;;;;;32.20;57.80;;;;;;6215220;23;20356;-85
2022/07/09 14:33:48;;;;;;;;;;;31.70;57.40;;;;;;6165298;23;19924;-86
2022/07/09 14:36:17;;;;;;;;;;;32.50;56.80;;;;;;6218723;23;19924;-85
2022/07/09 14:38:46;;;;;;;;;;;32.50;55.90;;;;;;6213958;23;19923;-85
2022/07/09 14:41:27;;;;;;;;;;;32.60;56.50;;;;;;6224475;23;19926;-86
2022/07/09 14:43:59;;;;;;;;;;;32.60;56.30;;;;;;6221660;23;19979;-86
2022/07/09 14:46:33;;;;;;;;;;;33.00;57.20;;;;;;6227341;23;20296;-85
2022/07/09 14:49:01;;;;;;;;;;;32.90;56.70;;;;;;6226375;23;19924;-85
2022/07/09 14:51:29;;;;;;;;;;;33.10;55.70;;;;;;6203118;23;19930;-86
2022/07/09 14:54:31;;;;;;;;;;;33.30;56.10;;;;;;6220556;23;19934;-86
2022/07/09 14:57:00;;;;;;;;;;;33.40;55.40;;;;;;6170711;23;19925;-85
2022/07/09 14:59:28;;;;;;;;;;;33.50;55.70;;;;;;6141171;23;19947;-86
2022/07/09 15:01:59;;;;;;;;;;;33.20;55.70;;;;;;6166118;23;19931;-85
2022/07/09 15:04:28;;;;;;;;;;;33.00;55.30;;;;;;6173084;23;20248;-86
2022/07/09 15:07:05;;;;;;;;;;;32.70;55.40;;;;;;6171772;23;19920;-85
2022/07/09 15:09:35;;;;;;;;;;;32.60;54.50;;;;;;6176744;23;20321;-86
2022/07/09 15:12:05;;;;;;;;;;;32.50;54.70;;;;;;6172062;23;19916;-86
2022/07/09 15:14:36;;;;;;;;;;;32.40;55.00;;;;;;6154817;23;20094;-85
2022/07/09 15:17:08;;;;;;;;;;;32.40;54.90;;;;;;6174280;23;19924;-87
2022/07/09 15:19:36;;;;;;;;;;;32.30;55.50;;;;;;6120516;23;19931;-85
2022/07/09 15:22:05;;;;;;;;;;;32.40;55.60;;;;;;6168848;23;19928;-86
2022/07/09 15:24:44;;;;;;;;;;;32.30;55.40;;;;;;6199264;23;20333;-87
2022/07/09 15:27:15;;;;;;;;;;;32.60;55.10;;;;;;6172787;23;19960;-85
2022/07/09 15:30:12;;;;;;;;;;;32.90;55.40;;;;;;6061693;23;19944;-86
2022/07/09 15:33:08;;;;;;;;;;;33.20;54.50;;;;;;6170834;23;19920;-84
2022/07/09 15:35:39;;;;;;;;;;;33.50;53.70;;;;;;6194785;23;19924;-85
2022/07/09 15:38:18;;;;;;;;;;;33.90;53.80;;;;;;6149006;23;19924;-86
2022/07/09 15:40:53;;;;;;;;;;;34.30;53.90;;;;;;6146633;23;19924;-86
2022/07/09 15:43:21;;;;;;;;;;;34.60;53.20;;;;;;6142288;23;19920;-85
2022/07/09 15:45:54;;;;;;;;;;;34.60;53.50;;;;;;6100776;23;19926;-86
2022/07/09 15:48:22;;;;;;;;;;;34.70;53.40;;;;;;6166504;23;20422;-87
2022/07/09 15:51:04;;;;;;;;;;;34.80;53.70;;;;;;6142116;23;19931;-84
2022/07/09 15:54:01;;;;;;;;;;;34.90;53.40;;;;;;6145189;23;19931;-85
2022/07/09 15:56:37;;;;;;;;;;;35.10;53.10;;;;;;6193648;23;19924;-87
2022/07/09 15:59:05;;;;;;;;;;;35.20;52.40;;;;;;6165643;23;19928;-86
2022/07/09 16:01:35;;;;;;;;;;;35.40;52.50;;;;;;6167018;23;19928;-86
2022/07/09 16:04:02;;;;;;;;;;;35.50;52.20;;;;;;6165599;23;19927;-87
2022/07/09 16:06:30;;;;;;;;;;;35.50;51.70;;;;;;6165601;23;20252;-86
2022/07/09 16:09:02;;;;;;;;;;;35.30;51.90;;;;;;6167364;23;19924;-86
2022/07/09 16:14:17;;;;;;;;;;;35.60;52.30;;;;;;6192084;23;19939;-87
2022/07/09 16:16:45;;;;;;;;;;;35.60;52.40;;;;;;6192989;23;19920;-88
2022/07/09 16:19:20;;;;;;;;;;;36.10;52.10;;;;;;6172321;23;19911;-85
2022/07/09 16:21:50;;;;;;;;;;;36.40;51.10;;;;;;6200483;23;19924;-88
2022/07/09 16:24:48;;;;;;;;;;;36.70;50.90;;;;;;6196814;23;20236;-86
2022/07/09 16:27:16;;;;;;;;;;;35.40;50.10;;;;;;6146213;23;19932;-87
2022/07/09 16:29:49;;;;;;;;;;;36.90;50.60;;;;;;6175316;23;19924;-87
2022/07/09 16:32:48;;;;;;;;;;;37.50;50.00;;;;;;5118302;27;19922;-89
2022/07/09 16:35:25;;;;;;;;;;;37.70;50.10;;;;;;5099899;28;20295;-90
2022/07/09 16:38:22;;;;;;;;;;;37.40;49.80;;;;;;5104286;28;19924;-89
2022/07/09 16:41:22;;;;;;;;;;;36.90;49.50;;;;;;5113188;28;19924;-89
2022/07/09 16:44:15;;;;;;;;;;;36.70;50.00;;;;;;5108662;28;20396;-89
2022/07/09 16:47:00;;;;;;;;;;;36.80;49.90;;;;;;5109639;28;19925;-89
2022/07/09 16:49:32;;;;;;;;;;;36.90;49.90;;;;;;5140521;27;19927;-89
2022/07/09 16:52:25;;;;;;;;;;;37.00;49.60;;;;;;5104209;28;19931;-87
2022/07/09 16:55:00;;;;;;;;;;;36.90;50.20;;;;;;5097599;28;19924;-88
2022/07/09 16:57:30;;;;;;;;;;;38.00;50.50;;;;;;5106275;28;19931;-91
2022/07/09 17:00:14;;;;;;;;;;;37.00;49.90;;;;;;5116086;28;19908;-88
2022/07/09 17:02:59;;;;;;;;;;;37.10;49.40;;;;;;5093198;28;19928;-90
2022/07/09 17:05:31;;;;;;;;;;;37.30;49.40;;;;;;5109338;27;19928;-88
2022/07/09 17:08:04;;;;;;;;;;;37.30;48.80;;;;;;5105623;28;19948;-90
2022/07/09 17:10:40;;;;;;;;;;;37.10;49.10;;;;;;5111170;28;19928;-89
2022/07/09 17:13:13;;;;;;;;;;;37.10;49.40;;;;;;5113548;28;19924;-88
2022/07/09 17:15:47;;;;;;;;;;;37.00;49.10;;;;;;5112347;28;19938;-89
2022/07/09 17:18:22;;;;;;;;;;;36.80;49.10;;;;;;5109584;28;19925;-88
2022/07/09 17:21:18;;;;;;;;;;;36.90;49.10;;;;;;5119568;28;20339;-88
2022/07/09 17:28:07;;;;;;;;;;;38.30;50.20;;;;;;5105939;28;19916;-89
2022/07/09 17:30:39;;;;;;;;;;;37.00;49.90;;;;;;5109966;28;19924;-89
2022/07/09 17:33:22;;;;;;;;;;;36.50;50.80;;;;;;5088940;28;20291;-89
2022/07/09 17:35:52;;;;;;;;;;;36.60;50.90;;;;;;5121413;28;19924;-88
2022/07/09 17:38:33;;;;;;;;;;;36.50;51.20;;;;;;5114777;28;19924;-89
2022/07/09 17:41:19;;;;;;;;;;;36.40;52.30;;;;;;5122674;28;19925;-89
2022/07/09 17:44:34;;;;;;;;;;;36.10;52.90;;;;;;5109097;28;19935;-89
2022/07/09 17:47:11;;;;;;;;;;;36.10;53.20;;;;;;5111359;28;19927;-90
2022/07/09 17:49:52;;;;;;;;;;;35.80;54.10;;;;;;5107485;28;19928;-89
2022/07/09 17:52:52;;;;;;;;;;;35.60;55.50;;;;;;5092230;28;19924;-86
2022/07/09 17:55:22;;;;;;;;;;;35.50;55.80;;;;;;5097883;22;19925;-89
2022/07/09 17:58:09;;;;;;;;;;;35.20;55.70;;;;;;5018275;28;19926;-88
2022/07/09 18:00:56;;;;;;;;;;;36.70;57.00;;;;;;5034141;28;19936;-88
2022/07/09 18:03:29;;;;;;;;;;;34.80;56.40;;;;;;5037404;28;19932;-89
2022/07/09 18:06:22;;;;;;;;;;;34.50;56.20;;;;;;5037954;28;19935;-89
2022/07/09 18:08:54;;;;;;;;;;;34.30;56.30;;;;;;5022872;28;19940;-89
2022/07/09 18:11:23;;;;;;;;;;;34.00;56.90;;;;;;5022701;28;19933;-89
2022/07/09 18:13:53;;;;;;;;;;;33.80;58.00;;;;;;5002001;28;19941;-90
2022/07/09 18:16:25;;;;;;;;;;;33.50;57.60;;;;;;5020488;28;19929;-88
2022/07/09 18:18:56;;;;;;;;;;;33.30;57.90;;;;;;5022268;28;19925;-89
2022/07/09 18:21:24;;;;;;;;;;;33.10;58.80;;;;;;5017057;28;19933;-90
2022/07/09 18:23:55;;;;;;;;;;;32.90;58.70;;;;;;5021532;28;19940;-88
2022/07/09 18:26:28;;;;;;;;;;;32.60;59.60;;;;;;5020452;28;19926;-89
2022/07/09 18:28:58;;;;;;;;;;;32.40;59.90;;;;;;5022344;28;19925;-91
2022/07/09 18:31:27;;;;;;;;;;;32.30;59.50;;;;;;5028649;28;19936;-89
2022/07/09 18:34:02;;;;;;;;;;;32.10;60.00;;;;;;5028462;28;19926;-91
2022/07/09 18:36:50;;;;;;;;;;;31.80;60.40;;;;;;5014988;28;19936;-90
2022/07/09 18:39:32;;;;;;;;;;;31.50;61.20;;;;;;5037105;28;19921;-91
2022/07/09 18:42:11;;;;;;;;;;;31.70;61.70;;;;;;5023205;28;19925;-91
2022/07/09 18:44:48;;;;;;;;;;;30.80;62.50;;;;;;5029749;28;20376;-91
2022/07/09 18:47:23;;;;;;;;;;;31.90;63.10;;;;;;5032014;28;19930;-89
2022/07/09 18:50:07;;;;;;;;;;;29.90;63.80;;;;;;5038732;28;19926;-91
2022/07/09 18:53:23;;;;;;;;;;;29.10;65.00;;;;;;5049178;28;19956;-88
2022/07/09 18:56:17;;;;;;;;;;;28.20;66.70;;;;;;5042210;28;19929;-90
2022/07/09 18:59:04;;;;;;;;;;;27.50;67.80;;;;;;5060231;28;19925;-88
2022/07/09 19:02:19;;;;;;;;;;;27.20;69.50;;;;;;5040769;28;19930;-89
2022/07/09 19:05:32;;;;;;;;;;;25.10;68.40;;;;;;5040989;28;19929;-90
2022/07/09 19:08:24;;;;;;;;;;;26.10;69.10;;;;;;5034825;28;19925;-88
2022/07/09 19:11:01;;;;;;;;;;;25.90;71.10;;;;;;5056233;28;19932;-88
2022/07/09 19:13:38;;;;;;;;;;;25.60;71.70;;;;;;5041633;28;19925;-89
2022/07/09 19:16:24;;;;;;;;;;;25.50;70.40;;;;;;5053486;28;19948;-91